Time;durP1;ratioP1;P1;durP2;ratioP2;P2;SDS_P1;SDS_P2;PMS_P1;PMS_P2;Temp;Humidity;BMP_temperature;BMP_pressure;BME280_temperature;BME280_humidity;BME280_pressure;Samples;Min_cycle;Max_cycle;Signal;HPM_P1;HPM_P2
2021/01/12 00:02:05;;;;;;;21.13;12.93;;;;;;;6.90;68.87;101445.00;5093991;28;20044;-65
2021/01/12 00:04:32;;;;;;;21.17;13.45;;;;;;;6.92;68.53;101426.41;5094057;28;20040;-67
2021/01/12 00:07:00;;;;;;;21.23;14.15;;;;;;;6.74;68.19;101425.00;5093120;28;20407;-68
2021/01/12 00:09:27;;;;;;;21.95;13.85;;;;;;;6.74;68.27;101416.78;5107800;28;20051;-67
2021/01/12 00:11:54;;;;;;;26.85;15.65;;;;;;;6.91;68.30;101418.44;5093919;28;20399;-67
2021/01/12 00:14:33;;;;;;;24.50;14.93;;;;;;;6.84;68.59;101424.19;5099824;28;20055;-64
2021/01/12 00:17:04;;;;;;;20.05;13.63;;;;;;;6.95;67.89;101436.81;5113879;28;20048;-64
2021/01/12 00:19:33;;;;;;;22.70;14.10;;;;;;;6.79;67.78;101437.88;5096139;28;20051;-63
2021/01/12 00:22:00;;;;;;;22.00;13.75;;;;;;;6.62;68.85;101437.28;5114203;28;20048;-64
2021/01/12 00:24:27;;;;;;;21.30;13.98;;;;;;;6.75;68.86;101434.84;5091138;28;20040;-63
2021/01/12 00:26:54;;;;;;;20.30;12.85;;;;;;;6.65;69.28;101432.09;5103523;28;20066;-64
2021/01/12 00:29:21;;;;;;;20.80;13.75;;;;;;;6.68;68.97;101428.81;5114494;28;20402;-67
2021/01/12 00:31:48;;;;;;;23.17;13.77;;;;;;;6.50;69.05;101428.50;5113942;28;20048;-64
2021/01/12 00:34:15;;;;;;;20.92;13.25;;;;;;;6.60;69.49;101434.81;5109479;28;20051;-65
2021/01/12 00:36:44;;;;;;;21.10;12.80;;;;;;;6.73;68.75;101420.59;5093386;28;20048;-67
2021/01/12 00:39:10;;;;;;;19.80;12.88;;;;;;;6.77;68.71;101423.63;5058970;28;20055;-64
2021/01/12 00:41:37;;;;;;;21.17;12.48;;;;;;;7.01;68.43;101415.72;5093437;28;20044;-64
2021/01/12 00:44:05;;;;;;;19.42;12.63;;;;;;;6.99;68.49;101412.44;5080670;28;20055;-66
2021/01/12 00:46:33;;;;;;;20.73;12.88;;;;;;;6.94;67.82;101417.91;5094090;28;20067;-65
2021/01/12 00:49:00;;;;;;;22.25;13.90;;;;;;;6.77;68.34;101429.09;5094087;27;20435;-64
2021/01/12 00:51:38;;;;;;;21.42;12.80;;;;;;;7.04;69.45;101417.91;5059340;28;20484;-63
2021/01/12 00:54:07;;;;;;;20.65;12.52;;;;;;;6.69;68.30;101424.97;5075204;28;20051;-63
2021/01/12 00:56:46;;;;;;;17.95;12.18;;;;;;;6.83;68.94;101420.63;5094445;28;20411;-65
2021/01/12 00:59:13;;;;;;;20.80;12.40;;;;;;;6.85;68.88;101396.53;5075273;28;20052;-65
2021/01/12 01:01:40;;;;;;;17.95;12.07;;;;;;;7.00;68.23;101400.38;5093008;28;20406;-63
2021/01/12 01:04:07;;;;;;;18.80;12.25;;;;;;;7.05;68.12;101403.94;5092871;28;20063;-64
2021/01/12 01:06:35;;;;;;;20.90;12.10;;;;;;;7.03;68.55;101399.81;5094924;28;20528;-64
2021/01/12 01:09:02;;;;;;;18.35;11.82;;;;;;;6.79;69.34;101388.59;5112776;28;20158;-66
2021/01/12 01:11:29;;;;;;;22.33;13.05;;;;;;;6.83;69.14;101379.53;5101874;28;20056;-64
2021/01/12 01:13:57;;;;;;;19.98;11.35;;;;;;;7.00;68.92;101383.94;5093137;28;20052;-64
2021/01/12 01:16:33;;;;;;;17.45;11.65;;;;;;;7.16;67.97;101380.09;5092821;28;20391;-62
2021/01/12 01:19:00;;;;;;;18.13;11.15;;;;;;;7.04;68.71;101374.91;5111349;28;20051;-63
2021/01/12 01:21:27;;;;;;;19.05;11.52;;;;;;;7.11;68.49;101374.63;5102465;28;20044;-64
2021/01/12 01:23:54;;;;;;;17.35;11.20;;;;;;;7.21;67.69;101374.63;5092544;28;20044;-64
2021/01/12 01:26:21;;;;;;;19.38;11.15;;;;;;;7.11;68.02;101380.13;5092273;28;20059;-64
2021/01/12 01:28:48;;;;;;;17.27;11.35;;;;;;;7.15;68.14;101383.97;5092443;28;20511;-64
2021/01/12 01:31:15;;;;;;;18.05;11.85;;;;;;;7.21;68.67;101389.16;5100185;28;20048;-62
2021/01/12 01:33:42;;;;;;;16.92;11.23;;;;;;;7.00;68.31;101386.69;5112162;28;20051;-66
2021/01/12 01:36:10;;;;;;;20.13;11.48;;;;;;;7.04;67.83;101391.34;5086817;28;20063;-66
2021/01/12 01:38:38;;;;;;;16.30;10.68;;;;;;;7.30;67.77;101390.25;5074982;28;20059;-63
2021/01/12 01:41:07;;;;;;;21.83;10.73;;;;;;;7.16;67.45;101391.06;5074831;28;20052;-65
2021/01/12 01:43:36;;;;;;;16.58;10.40;;;;;;;7.16;67.55;101389.16;5093113;28;20052;-64
2021/01/12 01:46:04;;;;;;;21.70;10.75;;;;;;;7.05;68.41;101392.16;5074061;28;20055;-64
2021/01/12 01:48:32;;;;;;;16.92;10.30;;;;;;;7.08;68.07;101386.94;5093426;28;20056;-65
2021/01/12 01:51:03;;;;;;;18.67;10.50;;;;;;;7.09;68.50;101380.41;5084727;28;20403;-64
2021/01/12 01:53:33;;;;;;;16.60;11.02;;;;;;;7.13;68.11;101381.47;5092591;28;20048;-63
2021/01/12 01:56:05;;;;;;;16.83;9.90;;;;;;;7.01;68.83;101383.66;5092154;28;20059;-65
2021/01/12 01:58:41;;;;;;;14.88;9.77;;;;;;;7.07;68.59;101379.00;5092325;28;20051;-65
2021/01/12 02:01:11;;;;;;;14.75;9.30;;;;;;;7.29;68.35;101363.09;5092963;28;20511;-64
2021/01/12 02:04:27;;;;;;;16.85;9.88;;;;;;;7.28;68.31;101366.94;5092848;28;20051;-65
2021/01/12 02:06:54;;;;;;;14.50;9.63;;;;;;;7.21;68.84;101363.66;5075590;28;20052;-61
2021/01/12 02:09:38;;;;;;;19.08;9.77;;;;;;;7.07;69.56;101357.09;5075353;28;20048;-64
2021/01/12 02:12:11;;;;;;;15.38;9.63;;;;;;;7.14;69.61;101363.13;5092214;28;20482;-64
2021/01/12 02:14:39;;;;;;;15.75;9.25;;;;;;;7.11;69.61;101358.19;5057566;28;20115;-65
2021/01/12 02:17:06;;;;;;;12.50;8.77;;;;;;;7.08;69.34;101345.06;5092598;28;20051;-64
2021/01/12 02:19:33;;;;;;;16.00;9.85;;;;;;;7.09;69.77;101335.75;5092215;28;20059;-65
2021/01/12 02:22:05;;;;;;;22.58;9.55;;;;;;;7.18;69.90;101339.56;5108200;28;20048;-63
2021/01/12 02:24:34;;;;;;;15.75;9.15;;;;;;;7.34;69.00;101330.22;5074901;28;20067;-66
2021/01/12 02:27:01;;;;;;;14.40;9.70;;;;;;;7.31;68.96;101336.25;5106442;28;20048;-64
2021/01/12 02:29:28;;;;;;;15.80;9.25;;;;;;;7.17;69.65;101324.22;5092733;28;20056;-64
2021/01/12 02:31:55;;;;;;;17.38;8.90;;;;;;;7.15;70.11;101329.97;5091973;28;20067;-65
2021/01/12 02:34:23;;;;;;;14.05;8.25;;;;;;;6.96;69.91;101331.63;5093168;28;21013;-63
2021/01/12 02:36:51;;;;;;;13.98;8.75;;;;;;;6.95;70.60;101321.78;5080395;28;20054;-64
2021/01/12 02:39:18;;;;;;;14.20;8.60;;;;;;;7.12;70.39;101325.06;5098687;28;20048;-65
2021/01/12 02:41:45;;;;;;;15.43;8.95;;;;;;;7.08;70.21;101320.41;5116283;28;20054;-65
2021/01/12 02:44:20;;;;;;;15.90;8.70;;;;;;;7.11;70.50;101319.84;5109533;28;20410;-63
2021/01/12 02:46:49;;;;;;;17.70;8.40;;;;;;;7.09;70.17;101322.88;5095408;28;20044;-65
2021/01/12 02:49:16;;;;;;;12.57;8.45;;;;;;;7.05;69.79;101318.19;5078353;28;20056;-66
2021/01/12 02:51:43;;;;;;;15.85;8.60;;;;;;;7.04;70.11;101311.09;5094634;28;20052;-66
2021/01/12 02:54:09;;;;;;;15.32;8.15;;;;;;;7.09;70.66;101306.44;5095521;28;20526;-62
2021/01/12 02:56:36;;;;;;;13.88;8.52;;;;;;;7.22;69.41;101294.91;5077400;28;20048;-63
2021/01/12 02:59:03;;;;;;;12.77;8.18;;;;;;;7.09;70.39;101300.97;5095600;28;20495;-65
2021/01/12 03:01:30;;;;;;;15.07;7.88;;;;;;;7.11;70.44;101292.47;5095181;28;20055;-63
2021/01/12 03:03:57;;;;;;;17.27;8.13;;;;;;;7.17;70.22;101288.59;5095349;28;20391;-66
2021/01/12 03:06:24;;;;;;;13.18;7.90;;;;;;;7.07;70.68;101283.16;5095037;28;20052;-64
2021/01/12 03:08:51;;;;;;;16.30;7.88;;;;;;;7.18;71.52;101282.88;5113198;28;20058;-65
2021/01/12 03:11:17;;;;;;;13.68;7.72;;;;;;;7.30;69.81;101275.16;5097345;28;20052;-64
2021/01/12 03:13:44;;;;;;;13.07;7.57;;;;;;;7.19;70.19;101278.19;5115582;28;20044;-65
2021/01/12 03:16:11;;;;;;;15.20;8.05;;;;;;;7.16;70.24;101276.84;5114313;28;20052;-65
2021/01/12 03:18:38;;;;;;;13.05;8.13;;;;;;;7.11;70.51;101270.56;5098502;28;20058;-65
2021/01/12 03:21:05;;;;;;;13.98;7.72;;;;;;;7.21;70.40;101267.78;5095087;28;20337;-64
2021/01/12 03:23:32;;;;;;;11.00;7.40;;;;;;;7.45;69.66;101264.16;5095115;28;20048;-65
2021/01/12 03:25:59;;;;;;;12.55;7.90;;;;;;;7.51;69.30;101264.94;5095030;28;20063;-64
2021/01/12 03:28:26;;;;;;;12.93;7.45;;;;;;;7.61;69.32;101264.91;5109012;28;20040;-64
2021/01/12 03:30:52;;;;;;;14.32;7.72;;;;;;;7.38;69.96;101269.09;5114840;28;20059;-64
2021/01/12 03:33:19;;;;;;;15.02;7.13;;;;;;;7.40;70.01;101268.81;5092560;28;20059;-65
2021/01/12 03:35:46;;;;;;;11.18;7.38;;;;;;;7.36;70.34;101268.56;5094278;28;20075;-65
2021/01/12 03:38:13;;;;;;;15.20;6.97;;;;;;;7.48;70.45;101260.03;5094662;28;20070;-64
2021/01/12 03:40:40;;;;;;;10.65;6.35;;;;;;;7.47;70.75;101251.00;5094866;28;20055;-65
2021/01/12 03:43:07;;;;;;;13.25;7.00;;;;;;;7.42;71.27;101258.41;5077095;28;20044;-66
2021/01/12 03:45:34;;;;;;;13.32;6.82;;;;;;;7.35;72.25;101246.91;5126215;27;20047;-65
2021/01/12 03:48:01;;;;;;;10.63;6.43;;;;;;;7.35;73.10;101233.22;5085374;28;20056;-66
2021/01/12 03:50:28;;;;;;;14.93;7.15;;;;;;;7.42;72.87;101231.81;5099101;28;20040;-62
2021/01/12 03:52:55;;;;;;;10.68;6.78;;;;;;;7.31;73.00;101226.63;5096977;28;20047;-65
2021/01/12 03:55:22;;;;;;;11.65;7.10;;;;;;;7.31;73.65;101221.16;5096059;28;20062;-64
2021/01/12 03:57:49;;;;;;;12.45;6.55;;;;;;;7.32;73.56;101215.41;5106189;28;20404;-64
2021/01/12 04:00:17;;;;;;;12.15;6.07;;;;;;;7.18;74.46;101205.34;5094001;28;20067;-64
2021/01/12 04:02:44;;;;;;;12.73;6.82;;;;;;;7.18;74.80;101199.84;5094215;28;20052;-65
2021/01/12 04:05:11;;;;;;;11.45;5.95;;;;;;;7.18;74.89;101202.59;5094473;28;20403;-65
2021/01/12 04:07:38;;;;;;;11.55;6.15;;;;;;;7.44;75.16;101193.19;5094598;28;20094;-65
2021/01/12 04:10:06;;;;;;;10.75;6.30;;;;;;;7.39;74.49;101193.19;5094229;28;20056;-66
2021/01/12 04:12:33;;;;;;;12.57;6.45;;;;;;;7.47;74.53;101187.13;5076156;28;20052;-65
2021/01/12 04:15:00;;;;;;;9.70;5.93;;;;;;;7.54;75.06;101184.91;5093906;28;20058;-65
2021/01/12 04:17:27;;;;;;;10.43;5.65;;;;;;;7.48;75.15;101177.81;5094461;28;20060;-63
2021/01/12 04:19:54;;;;;;;10.02;5.45;;;;;;;7.33;75.18;101183.34;5094960;28;20460;-66
2021/01/12 04:22:22;;;;;;;10.23;5.90;;;;;;;7.37;75.86;101170.72;5094478;28;20051;-65
2021/01/12 04:24:49;;;;;;;10.43;6.10;;;;;;;7.39;75.75;101176.75;5102679;28;20054;-64
2021/01/12 04:27:16;;;;;;;11.70;6.32;;;;;;;7.42;75.75;101166.06;5111098;28;20494;-63
2021/01/12 04:29:43;;;;;;;10.95;5.75;;;;;;;7.43;75.51;101161.38;5075331;28;20048;-66
2021/01/12 04:32:10;;;;;;;11.63;6.40;;;;;;;7.45;76.45;101149.03;5094089;28;20048;-64
2021/01/12 04:34:37;;;;;;;10.70;6.25;;;;;;;7.30;76.24;101164.75;5093268;28;20060;-64
2021/01/12 04:37:04;;;;;;;13.20;6.95;;;;;;;7.42;76.86;101157.00;5093477;28;20488;-64
2021/01/12 04:39:31;;;;;;;15.25;6.55;;;;;;;7.22;76.79;101162.59;5093940;28;20052;-64
2021/01/12 04:41:58;;;;;;;8.40;5.25;;;;;;;7.29;76.78;101146.63;5094082;28;20364;-65
2021/01/12 04:44:25;;;;;;;12.05;6.22;;;;;;;7.24;77.17;101138.44;5092883;28;20044;-67
2021/01/12 04:46:52;;;;;;;11.82;6.47;;;;;;;7.39;77.20;101128.22;5093288;28;20048;-64
2021/01/12 04:49:19;;;;;;;11.65;5.90;;;;;;;7.29;77.60;101136.50;5093657;28;20419;-65
2021/01/12 04:51:46;;;;;;;11.13;6.13;;;;;;;7.49;77.75;101138.34;5075252;28;20063;-66
2021/01/12 04:54:13;;;;;;;15.23;5.90;;;;;;;7.32;76.96;101124.97;5093617;28;20051;-64
2021/01/12 04:56:42;;;;;;;12.77;6.57;;;;;;;7.35;77.00;101124.44;5091447;28;20055;-65
2021/01/12 04:59:08;;;;;;;10.13;6.00;;;;;;;7.33;76.67;101121.16;5093786;28;20055;-63
2021/01/12 05:01:36;;;;;;;10.35;5.90;;;;;;;7.49;76.94;101117.22;5093052;28;20048;-65
2021/01/12 05:04:04;;;;;;;11.95;6.00;;;;;;;7.55;76.93;101124.31;5093280;28;20055;-65
2021/01/12 05:06:31;;;;;;;13.15;5.85;;;;;;;7.33;77.11;101126.63;5102345;28;20056;-63
2021/01/12 05:08:58;;;;;;;11.85;6.10;;;;;;;7.52;76.76;101129.53;5113418;28;20067;-63
2021/01/12 05:11:32;;;;;;;10.50;6.05;;;;;;;7.36;76.88;101122.50;5094829;28;20052;-65
2021/01/12 05:14:02;;;;;;;13.70;6.70;;;;;;;7.44;76.83;101119.19;5095366;28;20058;-64
2021/01/12 05:16:29;;;;;;;11.63;6.10;;;;;;;7.71;76.48;101105.84;5081018;28;20044;-63
2021/01/12 05:18:58;;;;;;;11.75;6.07;;;;;;;7.41;76.77;101109.59;5074287;28;20052;-63
2021/01/12 05:21:27;;;;;;;11.35;6.75;;;;;;;7.65;76.47;101113.28;5094309;28;20052;-65
2021/01/12 05:24:08;;;;;;;9.73;5.65;;;;;;;7.75;75.60;101106.91;5113386;28;20521;-64
2021/01/12 05:26:36;;;;;;;11.93;6.25;;;;;;;7.76;75.53;101095.66;5095479;28;20056;-65
2021/01/12 05:29:05;;;;;;;11.50;5.90;;;;;;;7.64;76.06;101084.22;5092868;28;20083;-65
2021/01/12 05:31:35;;;;;;;8.90;5.45;;;;;;;7.83;76.66;101081.59;5075349;28;20047;-66
2021/01/12 05:34:07;;;;;;;9.32;5.10;;;;;;;7.81;75.60;101079.16;5092698;28;20055;-65
2021/01/12 05:36:46;;;;;;;11.63;5.85;;;;;;;7.69;75.79;101067.75;5096780;28;20447;-66
2021/01/12 05:39:17;;;;;;;12.43;5.40;;;;;;;7.36;76.73;101074.00;5075917;28;20055;-64
2021/01/12 05:41:48;;;;;;;10.35;5.20;;;;;;;7.38;76.86;101079.19;5092497;28;20047;-63
2021/01/12 05:44:23;;;;;;;10.18;5.32;;;;;;;7.24;77.31;101070.78;5099914;28;20048;-66
2021/01/12 05:46:52;;;;;;;12.70;5.45;;;;;;;7.24;78.01;101062.56;5082564;28;20047;-65
2021/01/12 05:49:22;;;;;;;13.40;5.45;;;;;;;7.81;76.55;101046.25;5078722;28;20051;-66
2021/01/12 05:51:50;;;;;;;11.73;5.40;;;;;;;7.65;75.82;101055.69;5112613;28;20048;-65
2021/01/12 05:54:36;;;;;;;12.35;5.63;;;;;;;7.36;76.89;101054.00;5096966;28;20120;-69
2021/01/12 05:57:07;;;;;;;10.80;5.85;;;;;;;7.37;77.50;101055.66;5092701;28;20063;-71
2021/01/12 05:59:36;;;;;;;10.43;5.53;;;;;;;7.39;77.13;101046.03;5073865;28;20507;-66
2021/01/12 06:02:09;;;;;;;10.18;5.22;;;;;;;7.38;77.74;101051.78;5092175;28;20048;-66
2021/01/12 06:04:37;;;;;;;11.38;5.40;;;;;;;7.54;77.28;101061.56;5093456;28;20044;-67
2021/01/12 06:07:05;;;;;;;10.20;5.07;;;;;;;7.40;77.67;101066.03;5102762;28;20482;-65
2021/01/12 06:09:32;;;;;;;10.55;4.65;;;;;;;7.44;77.79;101067.09;5077563;28;20510;-65
2021/01/12 06:11:59;;;;;;;8.60;4.10;;;;;;;7.50;77.38;101071.44;5096224;28;20051;-64
2021/01/12 06:14:27;;;;;;;14.25;4.13;;;;;;;7.46;77.29;101062.16;5093999;28;20394;-67
2021/01/12 06:16:55;;;;;;;14.32;4.22;;;;;;;7.37;78.38;101061.13;5132107;27;20051;-66
2021/01/12 06:19:27;;;;;;;10.90;3.88;;;;;;;7.42;77.63;101063.81;5117046;28;20062;-65
2021/01/12 06:21:54;;;;;;;9.70;4.28;;;;;;;7.33;78.20;101062.78;5117368;28;20411;-62
2021/01/12 06:24:40;;;;;;;11.30;4.60;;;;;;;7.54;78.60;101051.41;5100512;28;20048;-64
2021/01/12 06:27:18;;;;;;;10.07;4.38;;;;;;;7.71;78.01;101037.28;5079080;28;20058;-64
2021/01/12 06:29:46;;;;;;;8.05;3.30;;;;;;;7.54;77.55;101042.38;5096211;28;20048;-65
2021/01/12 06:32:18;;;;;;;13.27;3.92;;;;;;;7.29;78.59;101048.00;5095962;28;20048;-65
2021/01/12 06:34:45;;;;;;;8.85;3.75;;;;;;;7.41;79.15;101051.25;5115806;28;20059;-66
2021/01/12 06:37:15;;;;;;;11.88;3.55;;;;;;;7.37;79.25;101039.19;5116614;28;20039;-64
2021/01/12 06:39:43;;;;;;;8.35;3.75;;;;;;;7.49;78.72;101034.19;5116453;28;20398;-66
2021/01/12 06:42:11;;;;;;;8.57;3.58;;;;;;;7.57;79.38;101031.66;5096490;28;20055;-65
2021/01/12 06:44:39;;;;;;;8.98;4.22;;;;;;;7.70;77.86;101032.91;5104810;28;20051;-65
2021/01/12 06:47:07;;;;;;;9.70;4.07;;;;;;;7.67;78.12;101030.75;5116022;28;20048;-64
2021/01/12 06:49:34;;;;;;;10.88;3.63;;;;;;;7.75;78.47;101024.66;5116641;28;20040;-66
2021/01/12 06:52:07;;;;;;;8.25;3.35;;;;;;;7.88;77.39;101030.28;5116581;28;20051;-66
2021/01/12 06:54:35;;;;;;;9.00;3.25;;;;;;;7.57;77.82;101028.06;5079219;28;20040;-64
2021/01/12 06:57:06;;;;;;;8.68;3.10;;;;;;;7.79;79.20;101021.03;5078468;28;20047;-66
2021/01/12 06:59:38;;;;;;;11.45;3.30;;;;;;;7.93;77.70;101023.94;5116248;28;20078;-66
2021/01/12 07:02:14;;;;;;;7.50;3.42;;;;;;;7.75;77.36;101027.41;5109037;28;20043;-67
2021/01/12 07:04:56;;;;;;;12.43;3.50;;;;;;;7.81;77.51;101029.81;5096538;28;20048;-65
2021/01/12 07:07:24;;;;;;;7.55;3.05;;;;;;;7.91;77.73;101023.41;5096894;28;20050;-64
2021/01/12 07:09:52;;;;;;;8.70;2.80;;;;;;;7.92;77.45;101030.53;5097580;28;20062;-66
2021/01/12 07:12:21;;;;;;;11.55;3.53;;;;;;;8.02;77.64;101027.69;5079711;28;20059;-66
2021/01/12 07:14:55;;;;;;;10.65;3.03;;;;;;;8.03;77.73;101029.34;5108708;28;20055;-66
2021/01/12 07:17:30;;;;;;;12.98;3.05;;;;;;;7.79;78.23;101021.03;5096359;28;20394;-66
2021/01/12 07:20:12;;;;;;;14.32;3.30;;;;;;;8.03;78.40;101032.09;5095637;28;20495;-66
2021/01/12 07:22:41;;;;;;;8.35;3.17;;;;;;;7.95;78.66;101032.69;5078033;28;20050;-66
2021/01/12 07:25:11;;;;;;;10.52;3.80;;;;;;;7.84;79.61;101029.25;5094616;28;20047;-65
2021/01/12 07:27:38;;;;;;;8.35;3.35;;;;;;;7.85;80.12;101024.56;5094211;28;20063;-68
2021/01/12 07:30:07;;;;;;;6.78;2.58;;;;;;;7.61;80.37;101027.25;5110746;28;20048;-65
2021/01/12 07:32:41;;;;;;;9.35;2.90;;;;;;;7.60;81.21;101030.28;5093959;28;20044;-64
2021/01/12 07:35:11;;;;;;;8.35;3.20;;;;;;;7.57;81.51;101020.69;5114683;28;20043;-69
2021/01/12 07:37:41;;;;;;;9.00;3.03;;;;;;;7.64;81.04;101018.44;5114327;28;20063;-66
2021/01/12 07:40:13;;;;;;;9.00;2.95;;;;;;;7.84;80.57;101011.97;5097082;28;20517;-66
2021/01/12 07:43:01;;;;;;;12.57;3.53;;;;;;;8.13;79.28;101010.03;5112883;28;20490;-66
2021/01/12 07:45:34;;;;;;;9.63;3.33;;;;;;;7.70;80.25;101009.06;5076903;28;20063;-63
2021/01/12 07:48:03;;;;;;;8.95;3.45;;;;;;;7.61;81.39;100999.00;5095217;28;20074;-66
2021/01/12 07:50:30;;;;;;;9.23;4.03;;;;;;;7.69;82.07;100998.38;5102289;28;20051;-68
2021/01/12 07:52:58;;;;;;;10.07;4.10;;;;;;;7.63;81.18;101010.50;5110860;28;20047;-66
2021/01/12 07:55:26;;;;;;;11.73;3.80;;;;;;;7.74;80.88;101006.56;5094380;28;20051;-65
2021/01/12 07:57:53;;;;;;;13.45;4.00;;;;;;;7.71;80.89;100994.25;5093943;28;20052;-67
2021/01/12 08:00:21;;;;;;;10.38;3.85;;;;;;;7.71;80.30;101004.38;5094251;28;20048;-68
2021/01/12 08:02:49;;;;;;;13.55;3.08;;;;;;;7.84;79.50;100999.09;5107235;28;20050;-65
2021/01/12 08:05:22;;;;;;;16.80;2.60;;;;;;;7.88;79.40;101002.03;5059982;28;20291;-65
2021/01/12 08:07:49;;;;;;;12.60;2.60;;;;;;;7.88;79.87;101005.59;5075989;28;20055;-65
2021/01/12 08:10:16;;;;;;;10.30;3.00;;;;;;;8.36;79.02;101000.22;5094033;28;20514;-68
2021/01/12 08:13:06;;;;;;;11.93;4.57;;;;;;;8.52;78.09;100994.25;5093892;28;21513;-66
2021/01/12 08:15:36;;;;;;;8.38;2.60;;;;;;;8.32;77.28;100994.47;5075557;28;20483;-66
2021/01/12 08:18:10;;;;;;;7.60;2.42;;;;;;;8.30;77.85;100996.69;5094447;28;20059;-64
2021/01/12 08:20:38;;;;;;;8.85;2.80;;;;;;;8.22;77.56;100991.81;5099869;28;20043;-63
2021/01/12 08:23:04;;;;;;;12.38;2.97;;;;;;;8.08;79.21;100998.28;5098986;28;20517;-65
2021/01/12 08:25:34;;;;;;;8.27;2.13;;;;;;;8.24;78.32;101000.63;5093940;28;20051;-63
2021/01/12 08:28:03;;;;;;;8.90;2.33;;;;;;;8.34;78.64;100991.44;5111788;27;20066;-63
2021/01/12 08:30:32;;;;;;;14.55;3.15;;;;;;;8.28;79.18;100995.38;5110478;27;20032;-63
2021/01/12 08:33:09;;;;;;;6.15;2.03;;;;;;;8.26;78.48;100984.69;5097295;27;20052;-63
2021/01/12 08:35:42;;;;;;;10.88;2.63;;;;;;;8.21;79.95;100979.19;5129955;27;20059;-66
2021/01/12 08:38:10;;;;;;;10.35;3.22;;;;;;;8.33;79.49;100984.34;5075955;28;20052;-63
2021/01/12 08:40:46;;;;;;;11.55;2.60;;;;;;;8.07;79.50;100992.00;5077036;28;20396;-63
2021/01/12 08:43:15;;;;;;;11.82;2.95;;;;;;;8.29;81.14;100977.78;5095864;28;20054;-64
2021/01/12 08:45:42;;;;;;;11.23;2.47;;;;;;;8.44;79.15;100983.91;5113767;28;20432;-65
2021/01/12 08:48:15;;;;;;;8.63;2.40;;;;;;;8.30;79.27;100991.22;5079439;28;20047;-64
2021/01/12 08:50:46;;;;;;;11.98;2.85;;;;;;;8.20;79.54;100983.06;5102230;28;20052;-64
2021/01/12 08:53:15;;;;;;;12.85;2.30;;;;;;;8.29;80.22;100986.84;5107488;28;20459;-64
2021/01/12 08:55:42;;;;;;;10.27;2.42;;;;;;;8.55;79.48;100996.41;5095951;28;20051;-65
2021/01/12 08:58:10;;;;;;;7.50;2.00;;;;;;;8.55;78.17;100996.41;5111486;28;20051;-65
2021/01/12 09:00:38;;;;;;;8.77;2.45;;;;;;;8.39;79.30;100983.16;5105439;28;20044;-66
2021/01/12 09:03:12;;;;;;;9.70;2.20;;;;;;;8.24;79.33;100984.16;5117637;27;20059;-62
2021/01/12 09:05:42;;;;;;;6.88;2.13;;;;;;;8.43;78.73;100989.69;5090244;28;20043;-67
2021/01/12 09:08:10;;;;;;;10.20;1.80;;;;;;;8.59;78.85;100991.97;5109792;28;20052;-68
2021/01/12 09:10:39;;;;;;;7.05;2.00;;;;;;;8.32;78.88;100994.47;5113724;27;20036;-67
2021/01/12 09:13:07;;;;;;;8.48;2.80;;;;;;;8.28;79.20;100998.91;5110454;27;20054;-66
2021/01/12 09:15:38;;;;;;;8.27;1.77;;;;;;;8.64;78.92;100983.69;5076281;28;20410;-64
2021/01/12 09:18:19;;;;;;;8.38;2.05;;;;;;;8.49;78.23;100999.53;5091132;28;20043;-64
2021/01/12 09:21:06;;;;;;;7.00;2.13;;;;;;;8.25;79.31;101002.25;5116360;27;20044;-65
2021/01/12 09:23:33;;;;;;;8.02;2.13;;;;;;;8.31;79.95;100992.03;5107604;28;20040;-64
2021/01/12 09:26:02;;;;;;;7.90;2.28;;;;;;;8.33;79.36;101001.63;5112551;28;20502;-66
2021/01/12 09:28:35;;;;;;;8.90;2.00;;;;;;;8.21;80.00;100998.41;5107656;27;20364;-65
2021/01/12 09:31:05;;;;;;;10.10;2.10;;;;;;;8.40;80.21;100990.28;5091515;28;20043;-65
2021/01/12 09:33:33;;;;;;;9.10;2.10;;;;;;;8.67;79.00;100985.81;5110868;28;20063;-63
2021/01/12 09:36:03;;;;;;;8.95;2.20;;;;;;;8.66;78.14;100983.38;5112104;28;20050;-61
2021/01/12 09:38:37;;;;;;;5.25;1.40;;;;;;;8.65;79.45;100976.22;5107616;28;20066;-65
2021/01/12 09:41:04;;;;;;;8.15;2.30;;;;;;;8.90;78.95;100976.72;5111373;28;20048;-65
2021/01/12 09:43:32;;;;;;;7.50;2.03;;;;;;;9.02;78.39;100968.03;5097760;28;20050;-66
2021/01/12 09:45:59;;;;;;;7.60;1.60;;;;;;;9.12;77.44;100967.09;5099789;28;20052;-65
2021/01/12 09:48:27;;;;;;;5.40;1.67;;;;;;;9.02;77.35;100968.88;5103042;27;20059;-65
2021/01/12 09:50:54;;;;;;;6.03;1.85;;;;;;;9.00;77.92;100973.84;5078773;28;20048;-63
2021/01/12 09:53:24;;;;;;;11.27;1.77;;;;;;;8.77;78.32;100969.22;5089778;28;20506;-65
2021/01/12 09:55:51;;;;;;;6.20;1.90;;;;;;;8.85;78.48;100960.31;5107054;28;20044;-65
2021/01/12 09:58:25;;;;;;;4.43;1.55;;;;;;;9.10;77.71;100959.13;5091039;28;20052;-65
2021/01/12 10:00:52;;;;;;;6.30;1.63;;;;;;;9.13;77.72;100959.34;5107724;28;20048;-65
2021/01/12 10:03:19;;;;;;;7.25;1.58;;;;;;;9.05;77.69;100959.19;5106207;28;20055;-65
2021/01/12 10:05:52;;;;;;;5.07;1.60;;;;;;;9.15;77.19;100959.06;5089746;28;20379;-65
2021/01/12 10:08:18;;;;;;;7.00;1.95;;;;;;;9.07;77.68;100960.53;5110795;28;20050;-64
2021/01/12 10:10:45;;;;;;;10.98;2.00;;;;;;;9.13;77.60;100962.09;5092140;28;20399;-65
2021/01/12 10:13:12;;;;;;;6.97;2.00;;;;;;;9.14;77.31;100951.91;5107746;28;20060;-65
2021/01/12 10:15:39;;;;;;;5.45;1.52;;;;;;;8.99;77.69;100957.66;5113616;28;20047;-65
2021/01/12 10:18:06;;;;;;;7.80;2.08;;;;;;;8.76;78.83;100955.78;5090678;28;20056;-66
2021/01/12 10:20:33;;;;;;;7.32;2.10;;;;;;;8.92;79.20;100966.28;5098598;28;20051;-65
2021/01/12 10:23:03;;;;;;;;;;;;;;;9.10;78.19;100970.94;5106750;28;20493;-65
2021/01/12 10:25:31;;;;;;;11.13;4.15;;;;;;;8.82;79.35;100962.84;5110562;28;19928;-64
2021/01/12 10:28:00;;;;;;;13.30;4.43;;;;;;;8.85;79.75;100965.81;5098451;28;20055;-64
2021/01/12 10:30:27;;;;;;;15.32;4.38;;;;;;;9.11;79.21;100963.50;5105561;28;20052;-65
2021/01/12 10:32:56;;;;;;;9.00;3.95;;;;;;;9.40;78.36;100957.81;5109347;28;20048;-64
2021/01/12 10:35:23;;;;;;;8.15;3.15;;;;;;;9.30;77.59;100963.50;5072541;28;20063;-66
2021/01/12 10:37:51;;;;;;;9.25;3.15;;;;;;;9.35;77.87;100963.41;5095904;28;20055;-66
2021/01/12 10:40:19;;;;;;;9.82;2.58;;;;;;;9.30;77.89;100952.50;5098006;28;20051;-64
2021/01/12 10:42:46;;;;;;;6.72;2.58;;;;;;;9.49;77.67;100953.28;5104989;28;20066;-63
2021/01/12 10:45:14;;;;;;;6.90;2.38;;;;;;;9.38;77.94;100947.13;5103667;28;20058;-67
2021/01/12 10:47:45;;;;;;;9.95;2.38;;;;;;;9.60;77.30;100957.50;5087861;28;20320;-67
2021/01/12 10:50:17;;;;;;;4.78;1.95;;;;;;;9.62;76.83;100953.34;5112240;28;20055;-66
2021/01/12 10:52:45;;;;;;;6.63;1.98;;;;;;;9.67;76.60;100944.19;5103550;28;20059;-63
2021/01/12 10:55:12;;;;;;;4.50;2.00;;;;;;;9.59;76.58;100937.44;5104893;27;20044;-65
2021/01/12 10:57:43;;;;;;;6.40;2.17;;;;;;;9.23;78.14;100950.13;5066602;27;20500;-65
2021/01/12 11:00:10;;;;;;;7.07;2.40;;;;;;;9.03;79.21;100954.00;5106219;28;20059;-65
2021/01/12 11:02:37;;;;;;;6.40;1.90;;;;;;;9.08;79.50;100937.44;5102449;27;20047;-67
2021/01/12 11:05:08;;;;;;;5.88;1.88;;;;;;;9.06;79.87;100931.44;5099658;27;20070;-66
2021/01/12 11:07:38;;;;;;;7.13;1.80;;;;;;;9.61;79.21;100939.88;5111864;27;20047;-64
2021/01/12 11:10:05;;;;;;;6.10;1.75;;;;;;;9.36;78.52;100934.81;5106076;27;20100;-65
2021/01/12 11:12:35;;;;;;;11.70;1.90;;;;;;;9.23;79.39;100919.91;5100143;27;20048;-65
2021/01/12 11:15:03;;;;;;;10.55;1.85;;;;;;;9.33;79.54;100927.19;5099150;27;20479;-66
2021/01/12 11:17:31;;;;;;;5.38;1.88;;;;;;;9.56;79.28;100920.72;5103733;27;20058;-67
2021/01/12 11:19:58;;;;;;;18.83;2.83;;;;;;;9.69;77.57;100917.97;5099606;27;20051;-63
2021/01/12 11:22:28;;;;;;;6.07;2.05;;;;;;;9.27;79.09;100917.38;5106711;27;20055;-66
2021/01/12 11:24:56;;;;;;;8.38;2.10;;;;;;;9.28;80.30;100925.31;5100005;27;20396;-66
2021/01/12 11:27:24;;;;;;;5.45;2.10;;;;;;;9.39;79.36;100914.97;5107453;27;20406;-63
2021/01/12 11:29:53;;;;;;;6.40;1.63;;;;;;;9.32;79.68;100915.34;5109426;28;20411;-65
2021/01/12 11:32:21;;;;;;;6.95;1.77;;;;;;;9.33;79.61;100918.94;5109610;28;20067;-64
2021/01/12 11:34:51;;;;;;;5.68;1.90;;;;;;;9.25;79.88;100900.34;5111136;28;20055;-64
2021/01/12 11:37:18;;;;;;;5.78;1.50;;;;;;;9.18;80.39;100903.50;5108048;28;20036;-66